Nippon Maru — JNNU — position and weather

sailwx.info

Track history (hours):
 
Tides and Currents Weather Stations Pressure Air Temp Water Temp Dewpoint Dewpoint Depression Visibility Wind Speed Wind Dir Waves Ship Positions

Nippon Maru

Last reported at 2018-Sep-22 06:56 UTC. Time now 2018-Sep-22 07:09 UTC.
Position N 34°41' E 135°12'.

Length 167 m; draft 6.5 m.

Type: Passenger vessel. MMSI: 431302000.

Date/timePositionNaut miles runAvg speedWind from/ knotsBaromVisibWave heightAir tempDewpointWater temp
2018-Sep-22 06:56N 34°41' E 135°12'0 1.0
2018-Sep-22 06:30N 34°41' E 135°13'4 8.6
2018-Sep-22 06:03N 34°39' E 135°16'114.0
2018-Sep-22 06:00N 34°38' E 135°17'713.0
2018-Sep-22 05:30N 34°32' E 135°13'716.6
2018-Sep-22 05:03N 34°26' E 135°08'116.7
2018-Sep-22 05:00N 34°26' E 135°07'816.6
2018-Sep-22 04:30N 34°19' E 135°01'714.8
2018-Sep-22 04:03N 34°13' E 134°59'115.3
2018-Sep-22 04:00N 34°12' E 134°59'816.5
2018-Sep-22 03:31N 34°04' E 135°00'716.2
2018-Sep-22 03:03N 33°56' E 135°00'116.2
2018-Sep-22 03:00N 33°55' E 135°00'815.3
2018-Sep-22 02:30N 33°49' E 135°04'23715.9
2018-Sep-21 11:35N 35°02' E 139°37'218.9
2018-Sep-21 11:29N 35°03' E 139°39'819.1
2018-Sep-21 11:03N 35°09' E 139°45'117.8
2018-Sep-21 11:00N 35°10' E 139°46'713.2
2018-Sep-21 10:30N 35°17' E 139°45'512.3
2018-Sep-21 10:03N 35°22' E 139°42'115.2
2018-Sep-21 10:00N 35°23' E 139°42'511.0
2018-Sep-21 09:30N 35°27' E 139°39'0 0.7
2018-Sep-21 09:02N 35°27' E 139°39'0 0.0
2018-Sep-21 08:59N 35°27' E 139°39'0 0.0
2018-Sep-21 08:29N 35°27' E 139°39'0 0.0
2018-Sep-21 08:02N 35°27' E 139°39'0 0.0
2018-Sep-21 07:59N 35°27' E 139°39'0 0.0
2018-Sep-21 07:29N 35°27' E 139°39'0 0.0
2018-Sep-21 07:02N 35°27' E 139°39'0 0.0
2018-Sep-21 06:59N 35°27' E 139°39'0 0.0
2018-Sep-21 06:29N 35°27' E 139°39'0 0.0
2018-Sep-21 06:02N 35°27' E 139°39'0 0.0
2018-Sep-21 05:59N 35°27' E 139°39'0 0.0
2018-Sep-21 05:29N 35°27' E 139°39'0 0.0
2018-Sep-21 05:02N 35°27' E 139°39'0 0.0
2018-Sep-21 04:59N 35°27' E 139°39'0 0.0
2018-Sep-21 04:29N 35°27' E 139°39'0 0.0
2018-Sep-21 04:02N 35°27' E 139°39'0 0.0
2018-Sep-21 03:59N 35°27' E 139°39'0 0.0
2018-Sep-21 03:29N 35°27' E 139°39'0 0.0
2018-Sep-21 03:02N 35°27' E 139°39'0 0.1
2018-Sep-21 02:59N 35°27' E 139°39'0 0.0
2018-Sep-21 02:29N 35°27' E 139°39'0 0.0
2018-Sep-21 02:02N 35°27' E 139°39'0 0.1
2018-Sep-21 01:59N 35°27' E 139°39'0 0.0
2018-Sep-21 01:26N 35°27' E 139°39'0 0.0
2018-Sep-21 01:02N 35°27' E 139°39'0 0.0
2018-Sep-21 00:59N 35°27' E 139°39'0 0.0
2018-Sep-21 00:29N 35°27' E 139°39'0 0.0
2018-Sep-21 00:02N 35°27' E 139°39'0 0.0
2018-Sep-20 23:59N 35°27' E 139°39'0 1.0
2018-Sep-20 23:31N 35°27' E 139°39'4 8.0
2018-Sep-20 23:04N 35°25' E 139°43'114.0
2018-Sep-20 23:01N 35°25' E 139°43'612.8
2018-Sep-20 22:30N 35°18' E 139°44'511.6
2018-Sep-20 22:04N 35°13' E 139°47'112.0
2018-Sep-20 22:01N 35°13' E 139°47'712.9
2018-Sep-20 21:30N 35°06' E 139°45'5 0.1
2018-Sep-19 14:01N 35°05' E 139°40'816.6
2018-Sep-19 13:30N 35°12' E 139°46'612.7
2018-Sep-19 13:03N 35°17' E 139°45'114.0
2018-Sep-19 13:00N 35°18' E 139°44'714.7
2018-Sep-19 12:30N 35°25' E 139°42'3 7.4
2018-Sep-19 12:03N 35°27' E 139°39'0 2.4
2018-Sep-19 12:00N 35°27' E 139°39'0 0.1
2018-Sep-19 11:30N 35°27' E 139°39'0 0.0
2018-Sep-19 11:03N 35°27' E 139°39'0 0.0
2018-Sep-19 11:00N 35°27' E 139°39'0 0.0
2018-Sep-19 10:30N 35°27' E 139°39'0 0.0
2018-Sep-19 10:03N 35°27' E 139°39'0 0.0
2018-Sep-19 10:00N 35°27' E 139°39'0 0.0
2018-Sep-19 09:30N 35°27' E 139°39'0 0.0
2018-Sep-19 09:03N 35°27' E 139°39'0 0.0
2018-Sep-19 08:57N 35°27' E 139°39'0 0.0
2018-Sep-19 08:30N 35°27' E 139°39'0 0.0
2018-Sep-19 08:03N 35°27' E 139°39'0 0.1
2018-Sep-19 08:00N 35°27' E 139°39'0 0.0
2018-Sep-19 07:30N 35°27' E 139°39'0 0.0
2018-Sep-19 07:03N 35°27' E 139°39'0 0.0
2018-Sep-19 06:57N 35°27' E 139°39'0 0.0
2018-Sep-19 06:30N 35°27' E 139°39'0 0.0
2018-Sep-19 06:03N 35°27' E 139°39'0 0.0
2018-Sep-19 06:00N 35°27' E 139°39'0 0.0
2018-Sep-19 05:30N 35°27' E 139°39'0 0.0
2018-Sep-19 05:03N 35°27' E 139°39'0 0.0
2018-Sep-19 04:57N 35°27' E 139°39'0 0.0
2018-Sep-19 04:30N 35°27' E 139°39'0 0.5
2018-Sep-19 04:03N 35°27' E 139°39'0 2.2
2018-Sep-19 04:00N 35°27' E 139°39'4 8.5
2018-Sep-19 03:30N 35°25' E 139°43'612.4
2018-Sep-19 03:03N 35°19' E 139°43'112.8
2018-Sep-19 03:00N 35°19' E 139°44'612.1
2018-Sep-19 02:30N 35°13' E 139°47'612.3
2018-Sep-19 02:02N 35°08' E 139°46'013.1
2018-Sep-19 02:00N 35°07' E 139°46'  
Track history (hours):
 
Tides and Currents Weather Stations Pressure Air Temp Water Temp Dewpoint Dewpoint Depression Visibility Wind Speed Wind Dir Waves Ship Positions

Nippon Maru

Last reported at 2018-Sep-22 06:56 UTC. Time now 2018-Sep-22 07:09 UTC.
Position N 34°41' E 135°12'.

Length 167 m; draft 6.5 m.

Type: Passenger vessel. MMSI: 431302000.

Date/timePositionNaut miles runAvg speedWind from/ knotsBaromVisibWave heightAir tempDewpointWater temp
2018-Sep-22 06:56N 34°41' E 135°12'0 1.0
2018-Sep-22 06:30N 34°41' E 135°13'4 8.6
2018-Sep-22 06:03N 34°39' E 135°16'114.0
2018-Sep-22 06:00N 34°38' E 135°17'713.0
2018-Sep-22 05:30N 34°32' E 135°13'716.6
2018-Sep-22 05:03N 34°26' E 135°08'116.7
2018-Sep-22 05:00N 34°26' E 135°07'816.6
2018-Sep-22 04:30N 34°19' E 135°01'714.8
2018-Sep-22 04:03N 34°13' E 134°59'115.3
2018-Sep-22 04:00N 34°12' E 134°59'816.5
2018-Sep-22 03:31N 34°04' E 135°00'716.2
2018-Sep-22 03:03N 33°56' E 135°00'116.2
2018-Sep-22 03:00N 33°55' E 135°00'815.3
2018-Sep-22 02:30N 33°49' E 135°04'23715.9
2018-Sep-21 11:35N 35°02' E 139°37'218.9
2018-Sep-21 11:29N 35°03' E 139°39'819.1
2018-Sep-21 11:03N 35°09' E 139°45'117.8
2018-Sep-21 11:00N 35°10' E 139°46'713.2
2018-Sep-21 10:30N 35°17' E 139°45'512.3
2018-Sep-21 10:03N 35°22' E 139°42'115.2
2018-Sep-21 10:00N 35°23' E 139°42'511.0
2018-Sep-21 09:30N 35°27' E 139°39'0 0.7
2018-Sep-21 09:02N 35°27' E 139°39'0 0.0
2018-Sep-21 08:59N 35°27' E 139°39'0 0.0
2018-Sep-21 08:29N 35°27' E 139°39'0 0.0
2018-Sep-21 08:02N 35°27' E 139°39'0 0.0
2018-Sep-21 07:59N 35°27' E 139°39'0 0.0
2018-Sep-21 07:29N 35°27' E 139°39'0 0.0
2018-Sep-21 07:02N 35°27' E 139°39'0 0.0
2018-Sep-21 06:59N 35°27' E 139°39'0 0.0
2018-Sep-21 06:29N 35°27' E 139°39'0 0.0
2018-Sep-21 06:02N 35°27' E 139°39'0 0.0
2018-Sep-21 05:59N 35°27' E 139°39'0 0.0
2018-Sep-21 05:29N 35°27' E 139°39'0 0.0
2018-Sep-21 05:02N 35°27' E 139°39'0 0.0
2018-Sep-21 04:59N 35°27' E 139°39'0 0.0
2018-Sep-21 04:29N 35°27' E 139°39'0 0.0
2018-Sep-21 04:02N 35°27' E 139°39'0 0.0
2018-Sep-21 03:59N 35°27' E 139°39'0 0.0
2018-Sep-21 03:29N 35°27' E 139°39'0 0.0
2018-Sep-21 03:02N 35°27' E 139°39'0 0.1
2018-Sep-21 02:59N 35°27' E 139°39'0 0.0
2018-Sep-21 02:29N 35°27' E 139°39'0 0.0
2018-Sep-21 02:02N 35°27' E 139°39'0 0.1
2018-Sep-21 01:59N 35°27' E 139°39'0 0.0
2018-Sep-21 01:26N 35°27' E 139°39'0 0.0
2018-Sep-21 01:02N 35°27' E 139°39'0 0.0
2018-Sep-21 00:59N 35°27' E 139°39'0 0.0
2018-Sep-21 00:29N 35°27' E 139°39'0 0.0
2018-Sep-21 00:02N 35°27' E 139°39'0 0.0
2018-Sep-20 23:59N 35°27' E 139°39'0 1.0
2018-Sep-20 23:31N 35°27' E 139°39'4 8.0
2018-Sep-20 23:04N 35°25' E 139°43'114.0
2018-Sep-20 23:01N 35°25' E 139°43'612.8
2018-Sep-20 22:30N 35°18' E 139°44'511.6
2018-Sep-20 22:04N 35°13' E 139°47'112.0
2018-Sep-20 22:01N 35°13' E 139°47'712.9
2018-Sep-20 21:30N 35°06' E 139°45'5 0.1
2018-Sep-19 14:01N 35°05' E 139°40'816.6
2018-Sep-19 13:30N 35°12' E 139°46'612.7
2018-Sep-19 13:03N 35°17' E 139°45'114.0
2018-Sep-19 13:00N 35°18' E 139°44'714.7
2018-Sep-19 12:30N 35°25' E 139°42'3 7.4
2018-Sep-19 12:03N 35°27' E 139°39'0 2.4
2018-Sep-19 12:00N 35°27' E 139°39'0 0.1
2018-Sep-19 11:30N 35°27' E 139°39'0 0.0
2018-Sep-19 11:03N 35°27' E 139°39'0 0.0
2018-Sep-19 11:00N 35°27' E 139°39'0 0.0
2018-Sep-19 10:30N 35°27' E 139°39'0 0.0
2018-Sep-19 10:03N 35°27' E 139°39'0 0.0
2018-Sep-19 10:00N 35°27' E 139°39'0 0.0
2018-Sep-19 09:30N 35°27' E 139°39'0 0.0
2018-Sep-19 09:03N 35°27' E 139°39'0 0.0
2018-Sep-19 08:57N 35°27' E 139°39'0 0.0
2018-Sep-19 08:30N 35°27' E 139°39'0 0.0
2018-Sep-19 08:03N 35°27' E 139°39'0 0.1
2018-Sep-19 08:00N 35°27' E 139°39'0 0.0
2018-Sep-19 07:30N 35°27' E 139°39'0 0.0
2018-Sep-19 07:03N 35°27' E 139°39'0 0.0
2018-Sep-19 06:57N 35°27' E 139°39'0 0.0
2018-Sep-19 06:30N 35°27' E 139°39'0 0.0
2018-Sep-19 06:03N 35°27' E 139°39'0 0.0
2018-Sep-19 06:00N 35°27' E 139°39'0 0.0
2018-Sep-19 05:30N 35°27' E 139°39'0 0.0
2018-Sep-19 05:03N 35°27' E 139°39'0 0.0
2018-Sep-19 04:57N 35°27' E 139°39'0 0.0
2018-Sep-19 04:30N 35°27' E 139°39'0 0.5
2018-Sep-19 04:03N 35°27' E 139°39'0 2.2
2018-Sep-19 04:00N 35°27' E 139°39'4 8.5
2018-Sep-19 03:30N 35°25' E 139°43'612.4
2018-Sep-19 03:03N 35°19' E 139°43'112.8
2018-Sep-19 03:00N 35°19' E 139°44'612.1
2018-Sep-19 02:30N 35°13' E 139°47'612.3
2018-Sep-19 02:02N 35°08' E 139°46'013.1
2018-Sep-19 02:00N 35°07' E 139°46'  

Dump ship's entire track history